Time;durP1;ratioP1;P1;durP2;ratioP2;P2;SDS_P1;SDS_P2;PMS_P1;PMS_P2;Temp;Humidity;BMP_temperature;BMP_pressure;BME280_temperature;BME280_humidity;BME280_pressure;Samples;Min_cycle;Max_cycle;Signal;HPM_P1;HPM_P2
2023/06/07 00:00:24;;;;;;;12.95;5.90;;;19.30;85.50;;;;;;4991340;28;20070;-96
2023/06/07 00:02:50;;;;;;;14.98;6.30;;;19.20;85.20;;;;;;4983216;28;20102;-96
2023/06/07 00:05:16;;;;;;;11.82;5.88;;;19.20;85.20;;;;;;4993542;28;20078;-96
2023/06/07 00:07:42;;;;;;;13.27;6.10;;;19.10;85.20;;;;;;4993423;28;20006;-95
2023/06/07 00:10:09;;;;;;;11.27;5.65;;;19.10;85.40;;;;;;4995530;28;20023;-95
2023/06/07 00:12:37;;;;;;;13.02;6.30;;;19.00;85.30;;;;;;4992952;28;20031;-96
2023/06/07 00:15:10;;;;;;;12.95;6.75;;;19.00;85.40;;;;;;4973932;28;20039;-96
2023/06/07 00:17:40;;;;;;;12.88;6.00;;;18.90;85.40;;;;;;4991072;28;20030;-95
2023/06/07 00:20:29;;;;;;;11.55;6.20;;;18.90;85.50;;;;;;4973451;28;20042;-95
2023/06/07 00:22:57;;;;;;;15.05;5.70;;;18.90;85.60;;;;;;4975185;28;20373;-95
2023/06/07 00:25:24;;;;;;;11.82;6.28;;;18.80;85.70;;;;;;4974961;28;20495;-95
2023/06/07 00:27:50;;;;;;;10.52;5.82;;;18.80;86.00;;;;;;4974597;28;20026;-95
2023/06/07 00:30:18;;;;;;;13.02;5.72;;;18.80;86.10;;;;;;4975018;28;20026;-95
2023/06/07 00:32:50;;;;;;;11.77;5.72;;;18.70;86.50;;;;;;4975195;28;20031;-96
2023/06/07 00:35:16;;;;;;;14.73;5.97;;;18.70;85.80;;;;;;4976218;28;20464;-96
2023/06/07 00:37:41;;;;;;;13.38;6.15;;;18.60;85.90;;;;;;4975916;28;20046;-96
2023/06/07 00:40:08;;;;;;;10.98;6.28;;;18.60;86.10;;;;;;4959039;28;20035;-95
2023/06/07 00:42:33;;;;;;;11.23;6.57;;;18.60;86.00;;;;;;4959631;28;20050;-95
2023/06/07 00:45:00;;;;;;;11.25;5.97;;;18.50;86.10;;;;;;4958700;28;20069;-95
2023/06/07 00:47:27;;;;;;;11.70;5.82;;;18.50;86.30;;;;;;4959777;28;20023;-94
2023/06/07 00:49:54;;;;;;;15.73;6.97;;;18.50;86.30;;;;;;4959371;28;20069;-95
2023/06/07 00:52:21;;;;;;;12.13;5.70;;;18.40;86.30;;;;;;4958587;28;20141;-95
2023/06/07 00:54:51;;;;;;;9.80;5.75;;;18.40;86.30;;;;;;4959273;28;20031;-95
2023/06/07 00:57:17;;;;;;;10.73;5.93;;;18.40;86.30;;;;;;4975127;28;20030;-89
2023/06/07 00:59:43;;;;;;;11.95;6.15;;;18.30;86.50;;;;;;4958941;28;20076;-92
2023/06/07 01:02:09;;;;;;;15.07;6.65;;;18.30;86.60;;;;;;4958385;28;20030;-91
2023/06/07 01:04:40;;;;;;;11.18;5.43;;;18.30;86.70;;;;;;4977368;28;20046;-94
2023/06/07 01:07:07;;;;;;;;;;;18.30;86.60;;;;;;4973918;28;20062;-95
2023/06/07 01:09:34;;;;;;;10.18;5.63;;;18.20;86.50;;;;;;4969527;28;19938;-96
2023/06/07 01:12:06;;;;;;;12.85;5.93;;;18.20;86.90;;;;;;4977250;28;20134;-94
2023/06/07 01:14:32;;;;;;;12.55;5.80;;;18.10;87.10;;;;;;4978141;28;20506;-95
2023/06/07 01:17:02;;;;;;;13.88;5.43;;;18.10;87.40;;;;;;4962640;28;20027;-95
2023/06/07 01:19:30;;;;;;;11.52;6.38;;;18.10;87.60;;;;;;4978404;28;20114;-95
2023/06/07 01:22:11;;;;;;;12.57;6.22;;;18.10;87.40;;;;;;4978650;28;20023;-94
2023/06/07 01:24:42;;;;;;;10.75;5.55;;;18.00;87.50;;;;;;4978077;28;20105;-94
2023/06/07 01:27:12;;;;;;;11.18;5.32;;;18.00;87.50;;;;;;4979008;28;20027;-94
2023/06/07 01:29:39;;;;;;;10.15;5.57;;;18.00;87.60;;;;;;4978393;28;20068;-93
2023/06/07 01:32:12;;;;;;;12.55;5.43;;;18.00;87.60;;;;;;4962102;28;20041;-94
2023/06/07 01:34:42;;;;;;;10.07;5.35;;;17.90;87.60;;;;;;4978416;28;20034;-95
2023/06/07 01:37:09;;;;;;;11.25;5.93;;;17.90;87.70;;;;;;4979159;28;20035;-94
2023/06/07 01:39:37;;;;;;;15.60;6.07;;;17.90;87.70;;;;;;4982133;28;20045;-95
2023/06/07 01:42:07;;;;;;;11.00;5.43;;;17.80;87.70;;;;;;4981965;28;20383;-95
2023/06/07 01:44:34;;;;;;;11.43;5.50;;;17.80;87.60;;;;;;4980675;28;20074;-95
2023/06/07 01:47:00;;;;;;;11.90;5.47;;;17.80;87.80;;;;;;4965333;28;20023;-94
2023/06/07 01:49:26;;;;;;;12.35;5.45;;;17.70;88.00;;;;;;4982886;28;20080;-95
2023/06/07 01:51:51;;;;;;;13.20;5.47;;;17.70;88.20;;;;;;4965495;28;20498;-93
2023/06/07 01:54:18;;;;;;;14.40;5.78;;;17.70;88.50;;;;;;4983326;28;20084;-94
2023/06/07 01:56:46;;;;;;;11.05;5.40;;;17.70;88.50;;;;;;5004474;28;20006;-94
2023/06/07 01:59:25;;;;;;;15.43;6.03;;;17.60;88.50;;;;;;5004456;28;20016;-94
2023/06/07 02:02:11;;;;;;;15.50;5.93;;;17.60;88.40;;;;;;5004392;28;20066;-94
2023/06/07 02:04:41;;;;;;;12.10;5.47;;;17.60;88.90;;;;;;5004160;28;20030;-94
2023/06/07 02:07:14;;;;;;;11.70;5.47;;;17.50;89.10;;;;;;5003654;28;20035;-95
2023/06/07 02:09:41;;;;;;;14.70;6.38;;;17.50;89.00;;;;;;5003478;28;20030;-94
2023/06/07 02:12:10;;;;;;;9.45;5.38;;;17.50;89.10;;;;;;4991753;28;20035;-95
2023/06/07 02:14:36;;;;;;;16.83;6.00;;;17.50;89.10;;;;;;4980819;28;20098;-95
2023/06/07 02:17:07;;;;;;;12.48;5.63;;;17.40;89.10;;;;;;4980950;28;20471;-95
2023/06/07 02:19:33;;;;;;;15.27;5.53;;;17.40;89.10;;;;;;4980466;28;20058;-95
2023/06/07 02:21:59;;;;;;;13.50;5.35;;;17.40;89.20;;;;;;4980321;28;20037;-95
2023/06/07 02:24:27;;;;;;;13.27;5.88;;;17.40;89.90;;;;;;4964193;28;20042;-95
2023/06/07 02:26:57;;;;;;;11.90;5.60;;;17.30;89.20;;;;;;4979298;28;20065;-95
2023/06/07 02:29:25;;;;;;;13.27;5.70;;;17.30;89.30;;;;;;4980544;28;20514;-95
2023/06/07 02:31:52;;;;;;;13.77;5.75;;;17.30;89.30;;;;;;4964122;28;20030;-95
2023/06/07 02:34:18;;;;;;;14.10;5.78;;;17.30;89.30;;;;;;4964618;28;20053;-94
2023/06/07 02:36:44;;;;;;;11.73;5.38;;;17.20;89.40;;;;;;4963771;28;20133;-95
2023/06/07 02:39:20;;;;;;;18.15;6.30;;;17.20;89.40;;;;;;4976137;28;20049;-95
2023/06/07 02:41:45;;;;;;;10.50;5.25;;;17.20;89.40;;;;;;4960550;28;20030;-94
2023/06/07 02:44:11;;;;;;;13.55;5.22;;;17.20;89.50;;;;;;4976438;28;20023;-95
2023/06/07 02:46:39;;;;;;;11.93;5.35;;;17.10;89.50;;;;;;4960681;28;20030;-95
2023/06/07 02:49:05;;;;;;;10.50;5.70;;;17.10;89.60;;;;;;4960494;28;20477;-95
2023/06/07 02:51:31;;;;;;;13.80;6.43;;;17.10;89.80;;;;;;4977337;28;20153;-95
2023/06/07 02:53:57;;;;;;;14.05;5.75;;;17.10;89.90;;;;;;4962096;28;20041;-95
2023/06/07 02:56:32;;;;;;;13.68;5.75;;;17.00;90.00;;;;;;4960486;28;20042;-95
2023/06/07 02:59:01;;;;;;;11.65;5.03;;;17.00;90.00;;;;;;4959947;28;20469;-95
2023/06/07 03:01:36;;;;;;;13.35;5.30;;;17.00;90.00;;;;;;4964004;28;20027;-96
2023/06/07 03:04:26;;;;;;;12.65;5.45;;;16.90;90.00;;;;;;4958378;29;20031;-96
2023/06/07 03:06:53;;;;;;;14.38;5.32;;;16.90;90.00;;;;;;4987679;28;20041;-96
2023/06/07 03:09:19;;;;;;;13.18;5.68;;;16.90;90.00;;;;;;4979912;28;20026;-96
2023/06/07 03:11:51;;;;;;;9.98;5.68;;;16.80;90.10;;;;;;4985857;28;20027;-96
2023/06/07 03:14:20;;;;;;;9.30;5.30;;;16.80;90.10;;;;;;4981781;28;20031;-96
2023/06/07 03:16:49;;;;;;;11.57;5.05;;;16.80;90.20;;;;;;4990510;28;20037;-96
2023/06/07 03:19:15;;;;;;;12.60;5.43;;;16.80;90.30;;;;;;4963754;28;20038;-92
2023/06/07 03:21:44;;;;;;;17.05;5.60;;;16.70;90.20;;;;;;4976764;28;20029;-90
2023/06/07 03:24:11;;;;;;;11.13;5.60;;;16.70;90.30;;;;;;4960293;28;20039;-91
2023/06/07 03:26:37;;;;;;;14.38;6.25;;;16.70;90.30;;;;;;4959900;28;20027;-91
2023/06/07 03:29:09;;;;;;;14.13;6.10;;;16.70;90.40;;;;;;4959568;28;20106;-91
2023/06/07 03:31:36;;;;;;;10.98;5.35;;;16.60;91.80;;;;;;4975598;28;20023;-91
2023/06/07 03:34:02;;;;;;;14.00;5.60;;;16.60;92.70;;;;;;4975649;28;20059;-90
2023/06/07 03:36:29;;;;;;;11.98;5.60;;;16.60;92.60;;;;;;4975435;28;20103;-91
2023/06/07 03:38:58;;;;;;;13.20;5.80;;;16.60;92.90;;;;;;4959558;28;20515;-91
2023/06/07 03:41:25;;;;;;;13.90;5.65;;;16.50;94.20;;;;;;4975625;28;20118;-91
2023/06/07 03:43:54;;;;;;;12.75;4.97;;;16.50;94.80;;;;;;4959670;28;20034;-92
2023/06/07 03:46:20;;;;;;;12.48;5.63;;;16.50;95.20;;;;;;4975758;28;20023;-91
2023/06/07 03:48:46;;;;;;;12.45;5.45;;;16.50;95.50;;;;;;4975530;28;20041;-92
2023/06/07 03:51:12;;;;;;;14.32;5.65;;;16.40;95.80;;;;;;4977045;28;20104;-96
2023/06/07 03:53:38;;;;;;;11.77;5.28;;;16.40;96.10;;;;;;4976481;28;20117;-95
2023/06/07 03:56:08;;;;;;;13.77;5.85;;;16.40;96.40;;;;;;4977213;28;20026;-95
2023/06/07 03:58:37;;;;;;;14.45;6.22;;;16.30;96.60;;;;;;4978982;28;20039;-96
2023/06/07 04:01:03;;;;;;;12.90;5.32;;;16.40;97.00;;;;;;4964495;28;20093;-95
2023/06/07 04:03:30;;;;;;;9.32;5.35;;;16.30;97.30;;;;;;4966201;28;20027;-96
2023/06/07 04:05:56;;;;;;;13.57;5.80;;;16.30;97.70;;;;;;4989946;28;20022;-95
2023/06/07 04:08:22;;;;;;;12.20;5.40;;;16.30;99.90;;;;;;4989926;28;20011;-91
2023/06/07 04:10:48;;;;;;;11.60;4.95;;;16.20;99.30;;;;;;4981367;28;20011;-91
2023/06/07 04:13:14;;;;;;;14.48;5.78;;;16.20;98.80;;;;;;4976895;28;20090;-92
2023/06/07 04:15:40;;;;;;;14.25;6.30;;;16.20;98.70;;;;;;4976490;28;20452;-91
2023/06/07 04:18:06;;;;;;;17.70;6.43;;;16.10;98.40;;;;;;4975387;28;20046;-91
2023/06/07 04:20:32;;;;;;;12.00;5.97;;;16.10;97.80;;;;;;4976022;28;20035;-91
2023/06/07 04:23:00;;;;;;;12.18;5.50;;;16.10;97.50;;;;;;4977910;28;20019;-91
2023/06/07 04:25:33;;;;;;;10.07;5.30;;;16.10;97.30;;;;;;4984921;28;20039;-92
2023/06/07 04:28:02;;;;;;;15.05;5.80;;;16.10;97.20;;;;;;4974671;28;20121;-91
2023/06/07 04:30:34;;;;;;;10.40;5.50;;;16.00;96.80;;;;;;4959817;28;20026;-92
2023/06/07 04:33:09;;;;;;;12.63;5.00;;;16.10;96.60;;;;;;4974895;28;20027;-91
2023/06/07 04:35:44;;;;;;;11.75;5.70;;;16.00;96.40;;;;;;4974904;28;20073;-94
2023/06/07 04:38:24;;;;;;;13.27;5.85;;;16.10;96.30;;;;;;4975056;28;20051;-92
2023/06/07 04:47:19;;;;;;;14.32;6.13;;;16.00;99.70;;;;;;4936725;28;20038;-94
2023/06/07 04:50:06;;;;;;;14.77;6.05;;;16.00;99.80;;;;;;4979328;28;20023;-94
2023/06/07 04:52:38;;;;;;;16.80;5.32;;;16.00;98.30;;;;;;4963302;28;20650;-95
2023/06/07 04:55:11;;;;;;;11.27;5.00;;;16.00;97.40;;;;;;4979285;28;20043;-93
2023/06/07 04:57:38;;;;;;;13.00;5.18;;;16.00;96.90;;;;;;4979479;28;20027;-91
2023/06/07 05:00:06;;;;;;;14.82;5.68;;;15.90;96.60;;;;;;4978224;28;20035;-91
2023/06/07 05:02:49;;;;;;;14.32;5.40;;;15.90;96.30;;;;;;4978512;28;20058;-95
2023/06/07 05:05:15;;;;;;;13.50;5.47;;;15.90;96.10;;;;;;4964537;28;20264;-94
2023/06/07 05:07:44;;;;;;;12.38;5.10;;;15.90;95.90;;;;;;4982531;28;20011;-93
2023/06/07 05:10:10;;;;;;;17.45;5.90;;;15.90;95.80;;;;;;4963048;28;20039;-92
2023/06/07 05:12:36;;;;;;;11.55;5.40;;;16.00;95.80;;;;;;4979208;28;20026;-93
2023/06/07 05:15:08;;;;;;;13.90;5.38;;;15.90;95.60;;;;;;4978406;28;20031;-91
2023/06/07 05:17:34;;;;;;;10.95;5.28;;;15.90;95.60;;;;;;4962200;28;20034;-92
2023/06/07 05:20:31;;;;;;;16.95;5.50;;;16.00;95.50;;;;;;4969864;28;20053;-90
2023/06/07 05:23:07;;;;;;;11.30;5.25;;;16.00;95.50;;;;;;4923721;29;20039;-92
2023/06/07 05:25:33;;;;;;;15.73;5.60;;;16.00;95.50;;;;;;4923383;29;20024;-91
2023/06/07 05:28:03;;;;;;;11.05;5.50;;;16.00;95.50;;;;;;4970843;28;20035;-91
2023/06/07 05:30:36;;;;;;;15.68;5.70;;;16.00;95.50;;;;;;4977886;28;20053;-92
2023/06/07 05:33:02;;;;;;;11.50;4.85;;;16.00;95.50;;;;;;4963759;28;20038;-92
2023/06/07 05:35:37;;;;;;;15.73;5.10;;;16.00;95.50;;;;;;4978577;28;20040;-91
2023/06/07 05:41:49;;;;;;;11.65;4.70;;;16.10;95.60;;;;;;4979244;28;20095;-94
2023/06/07 05:44:15;;;;;;;13.55;5.50;;;16.20;95.60;;;;;;4978048;28;20027;-94
2023/06/07 05:46:41;;;;;;;13.57;5.03;;;16.10;95.50;;;;;;4962131;28;20153;-93
2023/06/07 05:49:07;;;;;;;12.20;4.97;;;16.20;95.50;;;;;;4961824;28;20035;-91
2023/06/07 05:51:36;;;;;;;13.15;5.35;;;16.20;95.40;;;;;;4977681;28;20021;-92
2023/06/07 05:54:11;;;;;;;13.18;5.00;;;16.20;95.40;;;;;;4963735;28;20034;-92
2023/06/07 05:56:36;;;;;;;13.50;5.20;;;16.20;95.40;;;;;;4964584;28;20041;-92
2023/06/07 05:59:06;;;;;;;10.43;5.05;;;16.20;95.40;;;;;;4979808;28;20031;-93
2023/06/07 06:01:35;;;;;;;13.93;5.43;;;16.20;95.40;;;;;;4977933;28;20519;-91
2023/06/07 06:04:06;;;;;;;14.68;5.50;;;16.20;95.40;;;;;;4962336;28;20037;-94
2023/06/07 06:06:32;;;;;;;10.80;4.70;;;16.30;95.50;;;;;;4981467;28;20054;-94
2023/06/07 06:08:58;;;;;;;13.32;5.80;;;16.30;95.50;;;;;;4963922;28;20023;-94
2023/06/07 06:11:24;;;;;;;13.65;5.40;;;16.30;95.50;;;;;;4978409;28;20031;-94
2023/06/07 06:13:50;;;;;;;13.10;5.78;;;16.40;95.50;;;;;;4978917;28;20029;-93
2023/06/07 06:16:15;;;;;;;8.77;5.03;;;16.40;95.50;;;;;;4978421;28;20071;-93
2023/06/07 06:18:47;;;;;;;10.30;5.72;;;16.40;95.50;;;;;;4962226;28;20070;-93
2023/06/07 06:21:16;;;;;;;16.10;5.35;;;16.40;95.40;;;;;;4965744;28;20030;-94
2023/06/07 06:23:48;;;;;;;16.13;5.70;;;16.40;95.40;;;;;;5000800;28;20041;-94
2023/06/07 06:26:21;;;;;;;11.35;5.10;;;16.40;95.40;;;;;;4961606;28;20042;-95
2023/06/07 06:28:47;;;;;;;10.98;5.72;;;16.50;95.50;;;;;;4965386;28;20033;-94
2023/06/07 06:31:13;;;;;;;12.98;5.70;;;16.50;95.50;;;;;;4963503;28;20121;-95
2023/06/07 06:33:39;;;;;;;12.57;5.57;;;16.50;95.50;;;;;;4980272;28;20049;-94
2023/06/07 06:36:05;;;;;;;13.82;6.03;;;16.50;95.50;;;;;;4982925;28;20029;-96
2023/06/07 06:38:34;;;;;;;11.23;5.78;;;16.50;95.40;;;;;;4978892;28;20080;-95
2023/06/07 06:41:00;;;;;;;11.65;5.72;;;16.60;95.40;;;;;;4961487;28;20031;-95
2023/06/07 06:43:26;;;;;;;15.75;5.80;;;16.60;95.30;;;;;;4977720;28;20035;-95
2023/06/07 06:45:52;;;;;;;15.07;6.43;;;16.60;95.30;;;;;;4961690;28;20034;-95
2023/06/07 06:48:17;;;;;;;16.35;6.35;;;16.60;95.20;;;;;;4978048;28;20027;-96
2023/06/07 06:50:46;;;;;;;13.05;6.15;;;16.60;95.20;;;;;;4963357;28;20066;-95
2023/06/07 06:53:15;;;;;;;12.85;6.40;;;16.60;95.20;;;;;;4963286;28;20027;-94
2023/06/07 06:55:41;;;;;;;14.30;6.32;;;16.50;95.20;;;;;;4961702;28;20037;-94
2023/06/07 06:58:06;;;;;;;15.43;6.93;;;16.60;95.10;;;;;;4978185;28;20042;-93
2023/06/07 07:00:35;;;;;;;15.60;6.25;;;16.60;95.10;;;;;;4978609;28;20019;-95
2023/06/07 07:03:04;;;;;;;14.35;6.78;;;16.60;95.10;;;;;;4962298;28;20030;-95
2023/06/07 07:05:30;;;;;;;17.50;7.03;;;16.60;95.10;;;;;;4977507;28;20050;-94
2023/06/07 07:07:56;;;;;;;15.85;6.13;;;16.60;95.20;;;;;;4977040;28;20078;-94
2023/06/07 07:10:22;;;;;;;13.60;6.38;;;16.60;95.20;;;;;;4976694;28;20166;-95
2023/06/07 07:12:48;;;;;;;14.30;6.57;;;16.60;95.30;;;;;;4963099;28;20477;-94
2023/06/07 07:15:41;;;;;;;17.33;6.78;;;16.60;95.30;;;;;;5060241;22;20377;-79
2023/06/07 07:18:07;;;;;;;16.63;7.15;;;16.60;95.30;;;;;;5090802;28;20240;-88
2023/06/07 07:20:34;;;;;;;13.63;6.35;;;16.70;95.30;;;;;;5091098;28;20028;-88
2023/06/07 07:23:01;;;;;;;14.40;6.88;;;16.70;95.30;;;;;;5074220;28;20031;-88
2023/06/07 07:25:28;;;;;;;13.82;6.72;;;16.70;95.30;;;;;;5057827;28;20036;-89
2023/06/07 07:27:53;;;;;;;19.20;6.43;;;16.70;95.30;;;;;;5091016;28;20025;-88
2023/06/07 07:30:19;;;;;;;15.25;6.30;;;16.70;95.30;;;;;;5074901;28;20036;-89
2023/06/07 07:32:45;;;;;;;16.05;7.40;;;16.80;95.30;;;;;;5076921;28;20035;-90
2023/06/07 07:35:11;;;;;;;13.68;6.38;;;16.80;95.30;;;;;;5111957;28;20041;-89
2023/06/07 07:37:38;;;;;;;18.20;6.82;;;16.80;95.30;;;;;;5097377;28;20017;-88
2023/06/07 07:40:08;;;;;;;18.67;6.85;;;16.80;95.30;;;;;;5114153;28;20072;-87
2023/06/07 07:42:34;;;;;;;11.38;6.30;;;16.90;95.40;;;;;;5111846;28;20024;-88
2023/06/07 07:45:00;;;;;;;15.85;6.53;;;16.90;95.40;;;;;;5111875;28;20011;-88
2023/06/07 07:47:26;;;;;;;19.75;6.45;;;16.90;95.40;;;;;;5095464;28;20020;-88
2023/06/07 07:49:51;;;;;;;12.20;5.88;;;16.90;95.50;;;;;;5092033;28;20036;-89
2023/06/07 07:52:17;;;;;;;15.90;6.13;;;16.90;95.50;;;;;;5061556;28;20024;-88
2023/06/07 07:54:43;;;;;;;13.60;6.60;;;17.00;95.60;;;;;;5089831;28;20032;-88
2023/06/07 07:57:10;;;;;;;12.50;5.85;;;17.00;95.60;;;;;;5090450;28;20033;-88
2023/06/07 07:59:36;;;;;;;15.40;5.90;;;17.10;95.60;;;;;;5090183;28;20021;-87
2023/06/07 08:02:03;;;;;;;15.68;5.63;;;17.10;95.60;;;;;;5093511;28;20483;-89
2023/06/07 08:04:30;;;;;;;16.13;6.05;;;17.20;95.60;;;;;;5090325;28;20036;-88
2023/06/07 08:06:55;;;;;;;13.60;5.82;;;17.20;95.60;;;;;;5069919;28;20025;-88
2023/06/07 08:09:21;;;;;;;15.80;6.22;;;17.20;95.60;;;;;;5073624;28;20040;-89
2023/06/07 08:11:47;;;;;;;15.23;5.97;;;17.20;95.60;;;;;;5090521;28;20060;-90
2023/06/07 08:14:14;;;;;;;12.18;6.38;;;17.30;95.70;;;;;;5073651;28;20033;-88
2023/06/07 08:16:40;;;;;;;12.30;5.50;;;17.30;95.70;;;;;;5073633;28;20495;-89
2023/06/07 08:19:07;;;;;;;12.82;6.32;;;17.40;95.80;;;;;;5089447;28;20027;-80
2023/06/07 08:21:33;;;;;;;13.88;5.60;;;17.40;95.80;;;;;;5055497;28;20105;-80
2023/06/07 08:23:59;;;;;;;10.20;5.50;;;17.40;95.70;;;;;;5089317;28;20122;-80
2023/06/07 08:26:25;;;;;;;14.77;6.28;;;17.50;95.70;;;;;;5078486;28;20052;-81
2023/06/07 08:28:51;;;;;;;11.30;6.07;;;17.50;95.70;;;;;;5058367;28;20503;-81
2023/06/07 08:31:19;;;;;;;15.90;6.07;;;17.50;95.70;;;;;;5076545;28;20032;-82
2023/06/07 08:33:45;;;;;;;12.10;6.25;;;17.60;95.70;;;;;;5075883;28;20033;-80
2023/06/07 08:36:11;;;;;;;12.23;5.80;;;17.60;95.70;;;;;;5076069;28;20032;-80
2023/06/07 08:38:41;;;;;;;11.88;5.75;;;17.60;95.70;;;;;;5058502;28;20033;-80
2023/06/07 08:41:07;;;;;;;13.60;6.15;;;17.70;95.70;;;;;;5078239;28;20028;-80
2023/06/07 08:43:33;;;;;;;12.15;5.78;;;17.70;95.60;;;;;;5078102;28;20036;-80
2023/06/07 08:46:05;;;;;;;13.38;5.93;;;17.70;95.60;;;;;;5076128;28;20111;-81
2023/06/07 08:48:34;;;;;;;13.07;6.00;;;17.80;95.60;;;;;;5076570;28;20115;-81
2023/06/07 08:51:07;;;;;;;10.85;6.35;;;17.80;95.60;;;;;;5076947;28;20020;-81
2023/06/07 08:53:59;;;;;;;13.60;5.65;;;17.80;95.50;;;;;;5076014;28;20031;-81
2023/06/07 08:56:27;;;;;;;13.75;6.25;;;17.90;95.50;;;;;;5078205;28;20025;-80
2023/06/07 08:58:53;;;;;;;12.13;5.60;;;17.90;95.50;;;;;;5076982;28;20052;-82
2023/06/07 09:01:20;;;;;;;16.05;5.82;;;17.90;95.40;;;;;;5076152;28;20091;-81
2023/06/07 09:03:53;;;;;;;11.15;5.95;;;18.00;95.30;;;;;;5077570;28;20529;-80
2023/06/07 09:06:19;;;;;;;13.43;5.22;;;18.00;95.30;;;;;;5058921;28;20033;-81
2023/06/07 09:08:46;;;;;;;11.73;5.35;;;18.00;95.30;;;;;;5075037;28;20026;-81
2023/06/07 09:11:11;;;;;;;10.93;5.55;;;18.00;95.40;;;;;;5041382;28;20025;-80
2023/06/07 09:13:37;;;;;;;12.40;5.97;;;18.10;95.40;;;;;;5074397;28;20040;-81
2023/06/07 09:16:04;;;;;;;12.88;6.55;;;18.10;95.40;;;;;;5057274;28;20043;-81
2023/06/07 09:18:56;;;;;;;12.98;5.47;;;18.20;95.40;;;;;;5057836;28;20048;-81
2023/06/07 09:21:26;;;;;;;12.55;5.63;;;18.20;95.40;;;;;;5074142;28;20013;-81
2023/06/07 09:23:54;;;;;;;13.38;6.18;;;18.20;95.30;;;;;;5075450;28;20465;-81
2023/06/07 09:26:25;;;;;;;11.98;5.15;;;18.20;95.30;;;;;;5074018;28;20071;-81
2023/06/07 09:28:51;;;;;;;13.15;5.53;;;18.30;95.30;;;;;;5074141;28;20455;-81
2023/06/07 09:31:33;;;;;;;12.73;6.28;;;18.30;95.30;;;;;;5075169;28;20024;-81
2023/06/07 09:34:17;;;;;;;11.75;5.93;;;18.40;95.30;;;;;;5074910;28;20040;-80
2023/06/07 09:36:57;;;;;;;11.45;5.63;;;18.30;95.20;;;;;;5073041;28;20071;-80
2023/06/07 09:39:28;;;;;;;13.45;5.35;;;18.40;95.30;;;;;;5073751;28;20021;-80
2023/06/07 09:41:55;;;;;;;12.32;5.65;;;18.40;95.30;;;;;;5074789;28;20103;-80
2023/06/07 09:44:31;;;;;;;14.25;6.15;;;18.50;95.30;;;;;;5074095;28;20427;-81
2023/06/07 09:46:58;;;;;;;10.80;5.45;;;18.50;95.40;;;;;;5074426;28;20487;-81
2023/06/07 09:49:31;;;;;;;12.38;6.28;;;18.50;95.40;;;;;;5074705;28;20104;-80
2023/06/07 09:51:57;;;;;;;13.15;5.95;;;18.50;95.50;;;;;;5074731;28;20495;-80
2023/06/07 09:54:40;;;;;;;12.68;5.78;;;18.60;95.50;;;;;;5074541;28;20032;-81
2023/06/07 09:57:10;;;;;;;15.40;6.90;;;18.60;95.60;;;;;;5073182;28;20376;-79
2023/06/07 09:59:57;;;;;;;12.52;6.20;;;18.60;95.60;;;;;;5074538;28;20056;-80
2023/06/07 10:02:28;;;;;;;12.70;6.57;;;18.70;95.90;;;;;;5073369;28;20424;-80
2023/06/07 10:04:56;;;;;;;14.10;6.78;;;18.70;96.00;;;;;;5073838;28;20526;-81
2023/06/07 10:07:23;;;;;;;17.52;7.50;;;18.70;96.30;;;;;;5074989;28;20027;-81
2023/06/07 10:09:57;;;;;;;13.43;6.70;;;18.70;96.50;;;;;;5076507;28;20099;-81
2023/06/07 10:12:30;;;;;;;12.40;6.80;;;18.80;96.70;;;;;;5076189;28;20075;-80
2023/06/07 10:14:59;;;;;;;17.38;8.73;;;18.80;96.90;;;;;;5074199;28;20111;-80
2023/06/07 10:17:35;;;;;;;14.63;8.60;;;18.80;97.20;;;;;;5073957;28;20055;-79
2023/06/07 10:20:03;;;;;;;14.63;8.18;;;18.90;97.40;;;;;;5076401;28;20020;-81
2023/06/07 10:22:43;;;;;;;15.13;8.70;;;18.90;97.70;;;;;;5058078;28;20024;-81
2023/06/07 10:25:09;;;;;;;13.43;7.85;;;18.90;97.90;;;;;;5074475;28;20040;-80
2023/06/07 10:28:23;;;;;;;16.88;7.90;;;18.90;98.10;;;;;;5057765;28;20166;-80
2023/06/07 10:30:57;;;;;;;14.45;7.50;;;19.00;98.20;;;;;;5076548;28;20029;-80
2023/06/07 10:33:25;;;;;;;13.35;6.40;;;19.00;98.20;;;;;;5075488;28;20028;-80
2023/06/07 10:35:51;;;;;;;10.82;6.88;;;19.00;98.30;;;;;;5042320;28;20029;-88
2023/06/07 10:38:18;;;;;;;12.00;6.65;;;19.00;98.30;;;;;;5074285;28;20143;-80
2023/06/07 10:40:44;;;;;;;11.80;6.63;;;19.10;98.30;;;;;;5075699;28;20024;-79
2023/06/07 10:43:10;;;;;;;16.40;6.82;;;19.10;98.20;;;;;;5075857;28;20124;-92
2023/06/07 10:45:35;;;;;;;11.55;6.82;;;19.10;98.30;;;;;;5059258;28;20028;-92
2023/06/07 10:48:39;;;;;;;13.10;7.40;;;19.20;98.30;;;;;;5058980;28;20526;-93
2023/06/07 10:51:08;;;;;;;10.85;6.20;;;19.20;98.30;;;;;;5076999;28;20016;-93
2023/06/07 10:53:51;;;;;;;10.77;6.57;;;19.20;98.20;;;;;;5060461;28;20090;-93
2023/06/07 10:56:33;;;;;;;11.75;6.63;;;19.30;98.10;;;;;;5076319;28;20472;-93
2023/06/07 10:59:20;;;;;;;12.38;6.22;;;19.30;98.00;;;;;;5057104;28;20484;-92
2023/06/07 11:01:48;;;;;;;11.45;6.00;;;19.30;97.90;;;;;;5058495;28;20036;-89
2023/06/07 11:04:54;;;;;;;12.32;6.30;;;19.40;97.90;;;;;;5059191;28;20179;-91
2023/06/07 11:07:30;;;;;;;10.40;5.90;;;19.40;97.90;;;;;;5075560;28;20476;-90
2023/06/07 11:24:24;;;;;;;9.15;4.90;;;19.60;97.40;;;;;;5126912;22;20531;-91
2023/06/07 11:26:50;;;;;;;10.25;5.13;;;19.60;97.30;;;;;;5097265;28;20034;-91
2023/06/07 11:29:20;;;;;;;11.18;4.85;;;19.70;97.20;;;;;;5118649;28;20050;-92
2023/06/07 11:31:58;;;;;;;10.98;5.20;;;19.70;97.10;;;;;;5119060;28;20012;-91
2023/06/07 11:34:27;;;;;;;10.43;4.90;;;19.70;97.00;;;;;;5118182;28;20379;-90
2023/06/07 11:37:14;;;;;;;10.38;4.93;;;19.80;96.90;;;;;;5102334;28;20061;-91
2023/06/07 11:39:47;;;;;;;9.63;5.30;;;19.90;96.70;;;;;;5101706;28;20058;-92
2023/06/07 11:42:13;;;;;;;9.27;5.05;;;19.90;96.70;;;;;;5101000;28;20023;-92
2023/06/07 11:44:39;;;;;;;9.63;4.88;;;19.90;96.60;;;;;;5100431;28;20471;-94
2023/06/07 11:47:10;;;;;;;13.40;5.45;;;20.00;96.60;;;;;;5117395;28;20055;-93
2023/06/07 11:49:38;;;;;;;9.57;4.97;;;20.00;96.50;;;;;;5084135;28;20050;-93
2023/06/07 11:52:04;;;;;;;9.98;4.85;;;20.00;96.30;;;;;;5117407;28;20015;-92
2023/06/07 11:54:30;;;;;;;10.85;5.15;;;20.10;96.30;;;;;;5116786;28;20026;-93
2023/06/07 11:56:58;;;;;;;11.85;5.80;;;20.10;96.30;;;;;;5100251;28;20019;-93
2023/06/07 11:59:24;;;;;;;13.98;5.65;;;20.20;96.10;;;;;;5083924;27;20064;-92
2023/06/07 12:01:53;;;;;;;9.68;5.43;;;20.20;95.90;;;;;;5103850;27;20019;-93
2023/06/07 12:04:21;;;;;;;12.25;6.10;;;20.20;95.50;;;;;;5121228;27;20074;-92
2023/06/07 12:06:49;;;;;;;9.40;5.32;;;20.30;95.10;;;;;;5120198;27;20023;-92
2023/06/07 12:09:15;;;;;;;11.10;5.82;;;20.30;95.00;;;;;;5122524;27;20019;-91
2023/06/07 12:11:40;;;;;;;11.77;5.72;;;20.40;95.10;;;;;;5103563;27;20023;-90
2023/06/07 12:14:09;;;;;;;19.17;7.43;;;20.40;95.20;;;;;;5103652;27;20027;-90
2023/06/07 12:16:38;;;;;;;13.88;6.53;;;20.50;95.20;;;;;;5087403;27;20051;-89
2023/06/07 12:19:07;;;;;;;14.68;6.50;;;20.50;95.20;;;;;;5086939;27;20085;-90
2023/06/07 12:21:33;;;;;;;13.05;6.10;;;20.50;95.10;;;;;;5103681;27;20038;-90
2023/06/07 12:24:09;;;;;;;15.98;6.75;;;20.60;95.10;;;;;;5103388;27;20040;-90
2023/06/07 12:26:36;;;;;;;11.38;6.97;;;20.60;95.10;;;;;;5088665;27;20088;-89
2023/06/07 12:29:05;;;;;;;12.85;6.38;;;20.60;95.00;;;;;;5106625;27;20019;-91
2023/06/07 12:31:42;;;;;;;12.05;7.03;;;20.70;95.10;;;;;;5087682;27;20023;-93
2023/06/07 12:34:14;;;;;;;12.95;6.55;;;20.70;95.10;;;;;;5114397;27;20100;-90
2023/06/07 12:36:40;;;;;;;13.93;6.40;;;20.70;95.00;;;;;;5106766;27;20027;-89
2023/06/07 12:39:08;;;;;;;15.48;7.07;;;20.80;94.90;;;;;;5103863;27;20019;-89
2023/06/07 12:41:35;;;;;;;11.63;6.40;;;20.80;95.00;;;;;;5122107;27;20073;-89
2023/06/07 12:44:13;;;;;;;12.55;6.45;;;20.90;95.00;;;;;;5138886;27;20034;-89
2023/06/07 12:46:38;;;;;;;13.27;6.47;;;20.90;95.10;;;;;;5123573;27;20025;-91
2023/06/07 12:49:06;;;;;;;12.00;6.35;;;21.00;95.00;;;;;;5120273;27;20110;-92
2023/06/07 12:51:33;;;;;;;12.25;5.65;;;21.00;95.00;;;;;;5107468;27;20476;-91
2023/06/07 12:53:59;;;;;;;12.98;6.65;;;21.10;95.10;;;;;;5108977;27;20023;-90
2023/06/07 12:56:27;;;;;;;11.75;6.03;;;21.10;95.00;;;;;;5087666;27;20019;-90
2023/06/07 12:58:53;;;;;;;12.77;6.25;;;21.10;94.90;;;;;;5108838;27;20030;-90
2023/06/07 13:01:18;;;;;;;14.63;5.72;;;21.20;94.90;;;;;;5124723;27;20015;-89
2023/06/07 13:03:45;;;;;;;11.63;5.72;;;21.20;94.90;;;;;;5144246;27;20065;-88
2023/06/07 13:06:10;;;;;;;10.43;5.15;;;21.20;94.90;;;;;;5144382;27;20015;-88
2023/06/07 13:08:36;;;;;;;13.73;5.97;;;21.30;94.90;;;;;;5127302;27;20014;-87
2023/06/07 13:11:04;;;;;;;12.35;5.65;;;21.30;94.90;;;;;;5110294;27;20008;-88
2023/06/07 13:13:30;;;;;;;14.05;5.53;;;21.40;94.90;;;;;;5144089;27;20007;-88